Flight Track Log - Related Links

Times and Time Zones

All times are in EDT time to prevent confusion due to time zone crossing. See the HAL118 flight status page for this flight to view local times or setup timezone preferences in your user account.

Time Position Orientation Groundspeed Altitude Reporting Facility
EDT Latitude Longitude Course Direction KTS MPH feet Rate Location/Type
Sat 01:19:17 PM 21.3167 -157.9000 118° Southeast 180 207 1,000  Level Honolulu Center
Sat 01:20:17 PM 21.2667 -157.8667 148° Southeast 240 276 2,700 1,900 Climbing Honolulu Center
Sat 01:21:17 PM 21.2167 -157.8167 137° Southeast 270 311 4,800 2,300 Climbing Honolulu Center
Sat 01:22:00 PM 21.1597 -157.6562 126° Southeast  Level FlightAware Approximate
Sat 01:22:17 PM 21.1833 -157.7500 118° Southeast 270 311 7,300  Level Honolulu Center
Sat 01:23:00 PM 21.1172 -157.5924 126° Southeast  Level FlightAware Approximate
Sat 01:23:17 PM 21.1500 -157.6667 113° Southeast 280 322 9,600  Level Honolulu Center
Sat 01:24:00 PM 21.0794 -157.5255 118° Southeast  Level FlightAware Approximate
Sat 01:24:17 PM 21.1167 -157.5833 113° Southeast 300 345 11,000  Level Honolulu Center
Sat 01:25:17 PM 21.0500 -157.5000 131° Southeast 350 403 12,400 1,700 Climbing Honolulu Center
Sat 01:26:17 PM 20.9833 -157.4167 131° Southeast 360 414 14,400 1,850 Climbing Honolulu Center
Sat 01:27:17 PM 20.9167 -157.3333 131° Southeast 370 426 16,100 1,636 Climbing Honolulu Center
Sat 01:28:18 PM 20.8667 -157.2500 123° Southeast 390 449 17,700 1,884 Climbing Honolulu Center
Sat 01:29:18 PM 20.8000 -157.1667 131° Southeast 380 437 19,900 1,650 Climbing Honolulu Center
Sat 01:30:18 PM 20.7167 -157.0667 132° Southeast 380 437 21,000 550 Climbing Honolulu Center
Sat 01:31:18 PM 20.6500 -156.9833 131° Southeast 380 437 21,000  Level Honolulu Center
Sat 01:32:18 PM 20.5833 -156.8833 125° Southeast 380 437 21,000  Level Honolulu Center
Sat 01:33:18 PM 20.5167 -156.8000 130° Southeast 390 449 21,000 -450 Level Honolulu Center
Sat 01:34:18 PM 20.4500 -156.7167 130° Southeast 370 426 20,100 -1,650 Descending Honolulu Center
Sat 01:35:18 PM 20.3833 -156.6333 130° Southeast 370 426 17,700 -2,400 Descending Honolulu Center
Sat 01:36:18 PM 20.3167 -156.5500 130° Southeast 350 403 15,300 -2,281 Descending Honolulu Center
Sat 01:37:19 PM 20.2667 -156.4667 123° Southeast 340 391 13,100 -2,033 Descending Honolulu Center
Sat 01:38:19 PM 20.2000 -156.4000 137° Southeast 320 368 11,200 -1,650 Descending Honolulu Center
Sat 01:39:19 PM 20.1667 -156.3333 118° Southeast 290 334 9,800 -1,650 Descending Honolulu Center
Sat 01:40:19 PM 20.1167 -156.2667 129° Southeast 270 311 7,900 -1,850 Descending Honolulu Center
Sat 01:41:19 PM 20.0500 -156.2167 145° Southeast 270 311 6,100 -1,800 Descending Honolulu Center
Sat 01:42:19 PM 20.0000 -156.1667 137° Southeast 270 311 4,300 -1,500 Descending Honolulu Center
Sat 01:43:19 PM 19.9333 -156.1333 155° Southeast 260 299 3,100 -1,200 Descending Honolulu Center

Login

Don't have an account? Register now (free) for customized features, flight alerts, and more!